Aviation Digital Data Service (ADDS)

Output produced by METARs form (0209 UTC 11 December 2016)
found at http://aviationweather.gov/adds/metars/
 
KPHX 102320Z 1100/1124 27004KT P6SM BKN250 
     FM110600 10004KT P6SM FEW120 BKN200 
     FM112200 25004KT P6SM SCT100 BKN250